sensor_id;sensor_type;location;lat;lon;timestamp;P1;durP1;ratioP1;P2;durP2;ratioP2
6519;SDS011;3293;51.690;5.982;2023-03-12T00:03:45;14.97;;;7.10;;
6519;SDS011;3293;51.690;5.982;2023-03-12T00:08:48;9.37;;;5.83;;
6519;SDS011;3293;51.690;5.982;2023-03-12T00:13:49;10.00;;;5.93;;
6519;SDS011;3293;51.690;5.982;2023-03-12T00:18:50;8.43;;;5.97;;
6519;SDS011;3293;51.690;5.982;2023-03-12T00:23:52;8.80;;;6.00;;
6519;SDS011;3293;51.690;5.982;2023-03-12T00:28:52;8.87;;;6.40;;
6519;SDS011;3293;51.690;5.982;2023-03-12T00:33:53;13.87;;;7.50;;
6519;SDS011;3293;51.690;5.982;2023-03-12T00:38:54;8.80;;;6.73;;
6519;SDS011;3293;51.690;5.982;2023-03-12T00:43:55;11.53;;;6.73;;
6519;SDS011;3293;51.690;5.982;2023-03-12T00:48:55;10.33;;;6.30;;
6519;SDS011;3293;51.690;5.982;2023-03-12T00:53:55;7.67;;;5.60;;
6519;SDS011;3293;51.690;5.982;2023-03-12T00:58:55;7.40;;;5.07;;
6519;SDS011;3293;51.690;5.982;2023-03-12T01:03:55;8.77;;;5.47;;
6519;SDS011;3293;51.690;5.982;2023-03-12T01:08:57;6.90;;;5.07;;
6519;SDS011;3293;51.690;5.982;2023-03-12T01:13:58;7.70;;;5.53;;
6519;SDS011;3293;51.690;5.982;2023-03-12T01:18:59;5.77;;;5.13;;
6519;SDS011;3293;51.690;5.982;2023-03-12T01:24:00;7.97;;;5.33;;
6519;SDS011;3293;51.690;5.982;2023-03-12T01:29:00;9.27;;;5.67;;
6519;SDS011;3293;51.690;5.982;2023-03-12T01:34:00;6.87;;;4.77;;
6519;SDS011;3293;51.690;5.982;2023-03-12T01:39:00;7.33;;;5.73;;
6519;SDS011;3293;51.690;5.982;2023-03-12T01:44:01;8.23;;;5.50;;
6519;SDS011;3293;51.690;5.982;2023-03-12T01:54:04;5.67;;;4.53;;
6519;SDS011;3293;51.690;5.982;2023-03-12T01:59:28;5.37;;;4.17;;
6519;SDS011;3293;51.690;5.982;2023-03-12T02:04:31;9.10;;;4.33;;
6519;SDS011;3293;51.690;5.982;2023-03-12T02:09:32;3.97;;;3.57;;
6519;SDS011;3293;51.690;5.982;2023-03-12T02:14:35;6.80;;;3.90;;
6519;SDS011;3293;51.690;5.982;2023-03-12T02:19:45;5.97;;;3.70;;
6519;SDS011;3293;51.690;5.982;2023-03-12T02:29:52;7.43;;;3.93;;
6519;SDS011;3293;51.690;5.982;2023-03-12T02:34:52;4.60;;;3.77;;
6519;SDS011;3293;51.690;5.982;2023-03-12T02:39:55;5.70;;;4.03;;
6519;SDS011;3293;51.690;5.982;2023-03-12T02:45:11;8.00;;;3.97;;
6519;SDS011;3293;51.690;5.982;2023-03-12T02:50:11;6.07;;;3.70;;
6519;SDS011;3293;51.690;5.982;2023-03-12T02:55:12;7.97;;;4.00;;
6519;SDS011;3293;51.690;5.982;2023-03-12T03:00:12;13.10;;;4.43;;
6519;SDS011;3293;51.690;5.982;2023-03-12T03:05:13;8.13;;;3.90;;
6519;SDS011;3293;51.690;5.982;2023-03-12T03:10:13;9.20;;;4.37;;
6519;SDS011;3293;51.690;5.982;2023-03-12T03:15:15;5.60;;;4.27;;
6519;SDS011;3293;51.690;5.982;2023-03-12T03:20:15;9.73;;;4.23;;
6519;SDS011;3293;51.690;5.982;2023-03-12T03:25:15;13.37;;;4.73;;
6519;SDS011;3293;51.690;5.982;2023-03-12T03:30:17;6.53;;;4.30;;
6519;SDS011;3293;51.690;5.982;2023-03-12T03:35:18;13.07;;;4.50;;
6519;SDS011;3293;51.690;5.982;2023-03-12T03:40:20;5.97;;;4.10;;
6519;SDS011;3293;51.690;5.982;2023-03-12T03:45:20;7.63;;;4.30;;
6519;SDS011;3293;51.690;5.982;2023-03-12T03:50:20;7.87;;;4.53;;
6519;SDS011;3293;51.690;5.982;2023-03-12T03:55:20;7.03;;;4.20;;
6519;SDS011;3293;51.690;5.982;2023-03-12T04:00:20;8.70;;;4.10;;
6519;SDS011;3293;51.690;5.982;2023-03-12T04:05:20;6.63;;;3.83;;
6519;SDS011;3293;51.690;5.982;2023-03-12T04:10:23;10.07;;;4.60;;
6519;SDS011;3293;51.690;5.982;2023-03-12T04:15:23;10.03;;;4.50;;
6519;SDS011;3293;51.690;5.982;2023-03-12T04:20:23;6.53;;;4.10;;
6519;SDS011;3293;51.690;5.982;2023-03-12T04:25:23;7.20;;;4.30;;
6519;SDS011;3293;51.690;5.982;2023-03-12T04:30:23;9.23;;;4.83;;
6519;SDS011;3293;51.690;5.982;2023-03-12T04:35:23;8.17;;;4.90;;
6519;SDS011;3293;51.690;5.982;2023-03-12T04:40:23;8.40;;;4.53;;
6519;SDS011;3293;51.690;5.982;2023-03-12T04:45:23;7.23;;;4.43;;
6519;SDS011;3293;51.690;5.982;2023-03-12T04:50:23;10.80;;;4.87;;
6519;SDS011;3293;51.690;5.982;2023-03-12T04:55:23;9.57;;;4.57;;
6519;SDS011;3293;51.690;5.982;2023-03-12T05:00:23;7.33;;;4.70;;
6519;SDS011;3293;51.690;5.982;2023-03-12T05:05:25;7.73;;;4.90;;
6519;SDS011;3293;51.690;5.982;2023-03-12T05:10:25;6.10;;;4.83;;
6519;SDS011;3293;51.690;5.982;2023-03-12T05:15:25;10.03;;;5.20;;
6519;SDS011;3293;51.690;5.982;2023-03-12T05:20:25;6.97;;;4.43;;
6519;SDS011;3293;51.690;5.982;2023-03-12T05:25:25;7.90;;;4.20;;
6519;SDS011;3293;51.690;5.982;2023-03-12T05:30:25;8.87;;;4.67;;
6519;SDS011;3293;51.690;5.982;2023-03-12T05:35:25;12.30;;;5.27;;
6519;SDS011;3293;51.690;5.982;2023-03-12T05:40:25;7.00;;;4.07;;
6519;SDS011;3293;51.690;5.982;2023-03-12T05:45:25;6.30;;;4.63;;
6519;SDS011;3293;51.690;5.982;2023-03-12T05:50:25;7.43;;;4.50;;
6519;SDS011;3293;51.690;5.982;2023-03-12T05:55:25;7.83;;;4.40;;
6519;SDS011;3293;51.690;5.982;2023-03-12T06:00:25;8.20;;;4.23;;
6519;SDS011;3293;51.690;5.982;2023-03-12T06:05:26;5.57;;;4.47;;
6519;SDS011;3293;51.690;5.982;2023-03-12T06:10:26;8.00;;;4.50;;
6519;SDS011;3293;51.690;5.982;2023-03-12T06:15:26;8.67;;;4.57;;
6519;SDS011;3293;51.690;5.982;2023-03-12T06:20:26;8.40;;;5.03;;
6519;SDS011;3293;51.690;5.982;2023-03-12T06:25:26;9.00;;;5.33;;
6519;SDS011;3293;51.690;5.982;2023-03-12T06:30:26;6.13;;;4.30;;
6519;SDS011;3293;51.690;5.982;2023-03-12T06:35:26;8.50;;;4.77;;
6519;SDS011;3293;51.690;5.982;2023-03-12T06:40:25;10.17;;;4.40;;
6519;SDS011;3293;51.690;5.982;2023-03-12T06:45:26;8.33;;;4.23;;
6519;SDS011;3293;51.690;5.982;2023-03-12T06:50:25;9.90;;;4.60;;
6519;SDS011;3293;51.690;5.982;2023-03-12T06:55:25;6.13;;;4.63;;
6519;SDS011;3293;51.690;5.982;2023-03-12T07:00:26;5.83;;;4.10;;
6519;SDS011;3293;51.690;5.982;2023-03-12T07:05:26;12.07;;;5.37;;
6519;SDS011;3293;51.690;5.982;2023-03-12T07:10:26;7.97;;;4.77;;
6519;SDS011;3293;51.690;5.982;2023-03-12T07:15:27;10.97;;;5.30;;
6519;SDS011;3293;51.690;5.982;2023-03-12T07:20:27;10.03;;;5.67;;
6519;SDS011;3293;51.690;5.982;2023-03-12T07:25:27;13.07;;;5.63;;
6519;SDS011;3293;51.690;5.982;2023-03-12T07:30:27;9.90;;;5.93;;
6519;SDS011;3293;51.690;5.982;2023-03-12T07:35:31;12.07;;;6.33;;
6519;SDS011;3293;51.690;5.982;2023-03-12T07:40:31;9.30;;;5.63;;
6519;SDS011;3293;51.690;5.982;2023-03-12T07:45:31;10.17;;;6.27;;
6519;SDS011;3293;51.690;5.982;2023-03-12T07:50:31;15.37;;;6.23;;
6519;SDS011;3293;51.690;5.982;2023-03-12T07:55:32;8.67;;;5.83;;
6519;SDS011;3293;51.690;5.982;2023-03-12T08:00:32;11.63;;;6.93;;
6519;SDS011;3293;51.690;5.982;2023-03-12T08:05:32;10.00;;;6.57;;
6519;SDS011;3293;51.690;5.982;2023-03-12T08:10:32;9.03;;;6.50;;
6519;SDS011;3293;51.690;5.982;2023-03-12T08:15:32;9.27;;;6.73;;
6519;SDS011;3293;51.690;5.982;2023-03-12T08:20:33;12.07;;;7.30;;
6519;SDS011;3293;51.690;5.982;2023-03-12T08:25:33;11.23;;;7.60;;
6519;SDS011;3293;51.690;5.982;2023-03-12T08:30:35;10.00;;;7.20;;
6519;SDS011;3293;51.690;5.982;2023-03-12T08:35:34;10.63;;;7.43;;
6519;SDS011;3293;51.690;5.982;2023-03-12T08:40:35;12.17;;;8.20;;
6519;SDS011;3293;51.690;5.982;2023-03-12T08:45:35;14.00;;;8.23;;
6519;SDS011;3293;51.690;5.982;2023-03-12T08:50:35;16.40;;;7.13;;
6519;SDS011;3293;51.690;5.982;2023-03-12T08:55:35;9.93;;;7.93;;
6519;SDS011;3293;51.690;5.982;2023-03-12T09:00:35;12.27;;;7.47;;
6519;SDS011;3293;51.690;5.982;2023-03-12T09:05:35;11.40;;;8.30;;
6519;SDS011;3293;51.690;5.982;2023-03-12T09:10:35;11.50;;;8.40;;
6519;SDS011;3293;51.690;5.982;2023-03-12T09:15:36;12.77;;;9.00;;
6519;SDS011;3293;51.690;5.982;2023-03-12T09:20:36;13.33;;;9.03;;
6519;SDS011;3293;51.690;5.982;2023-03-12T09:25:35;13.37;;;9.37;;
6519;SDS011;3293;51.690;5.982;2023-03-12T09:30:35;13.67;;;9.43;;
6519;SDS011;3293;51.690;5.982;2023-03-12T09:35:35;16.37;;;10.13;;
6519;SDS011;3293;51.690;5.982;2023-03-12T09:40:36;21.07;;;12.27;;
6519;SDS011;3293;51.690;5.982;2023-03-12T09:45:41;16.70;;;12.33;;
6519;SDS011;3293;51.690;5.982;2023-03-12T09:50:44;21.10;;;13.10;;
6519;SDS011;3293;51.690;5.982;2023-03-12T09:55:48;22.50;;;13.37;;
6519;SDS011;3293;51.690;5.982;2023-03-12T10:00:52;24.43;;;15.37;;
6519;SDS011;3293;51.690;5.982;2023-03-12T10:06:13;23.33;;;16.30;;
6519;SDS011;3293;51.690;5.982;2023-03-12T10:11:25;24.10;;;15.57;;
6519;SDS011;3293;51.690;5.982;2023-03-12T10:16:50;23.40;;;17.00;;
6519;SDS011;3293;51.690;5.982;2023-03-12T10:22:14;26.70;;;17.37;;
6519;SDS011;3293;51.690;5.982;2023-03-12T10:27:36;26.80;;;17.77;;
6519;SDS011;3293;51.690;5.982;2023-03-12T10:32:43;28.87;;;18.03;;
6519;SDS011;3293;51.690;5.982;2023-03-12T10:37:53;24.03;;;18.83;;
6519;SDS011;3293;51.690;5.982;2023-03-12T10:42:57;27.00;;;19.27;;
6519;SDS011;3293;51.690;5.982;2023-03-12T10:47:58;29.53;;;19.90;;
6519;SDS011;3293;51.690;5.982;2023-03-12T10:53:18;28.90;;;19.67;;
6519;SDS011;3293;51.690;5.982;2023-03-12T10:58:25;27.93;;;20.70;;
6519;SDS011;3293;51.690;5.982;2023-03-12T11:03:29;25.47;;;19.13;;
6519;SDS011;3293;51.690;5.982;2023-03-12T11:08:31;25.23;;;19.60;;
6519;SDS011;3293;51.690;5.982;2023-03-12T11:13:38;26.90;;;19.90;;
6519;SDS011;3293;51.690;5.982;2023-03-12T11:18:39;27.77;;;18.53;;
6519;SDS011;3293;51.690;5.982;2023-03-12T11:34:26;25.47;;;17.73;;
6519;SDS011;3293;51.690;5.982;2023-03-12T12:01:06;23.10;;;14.43;;
6519;SDS011;3293;51.690;5.982;2023-03-12T12:06:22;27.67;;;15.53;;
6519;SDS011;3293;51.690;5.982;2023-03-12T12:11:37;25.40;;;14.63;;
6519;SDS011;3293;51.690;5.982;2023-03-12T12:27:25;28.67;;;13.57;;
6519;SDS011;3293;51.690;5.982;2023-03-12T12:32:34;31.60;;;14.37;;
6519;SDS011;3293;51.690;5.982;2023-03-12T12:38:59;30.17;;;14.17;;
6519;SDS011;3293;51.690;5.982;2023-03-12T12:43:37;25.67;;;13.23;;
6519;SDS011;3293;51.690;5.982;2023-03-12T12:48:43;31.13;;;13.67;;
6519;SDS011;3293;51.690;5.982;2023-03-12T12:53:58;27.30;;;12.53;;
6519;SDS011;3293;51.690;5.982;2023-03-12T12:59:27;25.53;;;10.63;;
6519;SDS011;3293;51.690;5.982;2023-03-12T13:04:57;26.13;;;9.37;;
6519;SDS011;3293;51.690;5.982;2023-03-12T13:09:57;31.57;;;9.57;;
6519;SDS011;3293;51.690;5.982;2023-03-12T13:15:32;27.40;;;9.17;;
6519;SDS011;3293;51.690;5.982;2023-03-12T13:20:44;21.17;;;8.90;;
6519;SDS011;3293;51.690;5.982;2023-03-12T13:30:52;27.00;;;10.63;;
6519;SDS011;3293;51.690;5.982;2023-03-12T13:36:09;25.67;;;11.03;;
6519;SDS011;3293;51.690;5.982;2023-03-12T13:41:10;30.97;;;11.30;;
6519;SDS011;3293;51.690;5.982;2023-03-12T13:46:35;29.97;;;13.30;;
6519;SDS011;3293;51.690;5.982;2023-03-12T13:51:44;26.93;;;11.37;;
6519;SDS011;3293;51.690;5.982;2023-03-12T13:56:58;25.13;;;10.27;;
6519;SDS011;3293;51.690;5.982;2023-03-12T14:02:02;31.10;;;10.80;;
6519;SDS011;3293;51.690;5.982;2023-03-12T14:07:26;26.10;;;9.20;;
6519;SDS011;3293;51.690;5.982;2023-03-12T14:17:38;23.57;;;8.17;;
6519;SDS011;3293;51.690;5.982;2023-03-12T14:22:40;28.40;;;8.00;;
6519;SDS011;3293;51.690;5.982;2023-03-12T14:27:46;21.23;;;6.43;;
6519;SDS011;3293;51.690;5.982;2023-03-12T14:32:47;19.80;;;6.73;;
6519;SDS011;3293;51.690;5.982;2023-03-12T14:37:59;27.07;;;6.33;;
6519;SDS011;3293;51.690;5.982;2023-03-12T14:43:23;24.47;;;6.50;;
6519;SDS011;3293;51.690;5.982;2023-03-12T14:48:29;20.63;;;6.10;;
6519;SDS011;3293;51.690;5.982;2023-03-12T14:53:35;24.70;;;6.40;;
6519;SDS011;3293;51.690;5.982;2023-03-12T14:58:46;27.20;;;7.60;;
6519;SDS011;3293;51.690;5.982;2023-03-12T15:03:49;19.80;;;6.93;;
6519;SDS011;3293;51.690;5.982;2023-03-12T15:08:55;27.33;;;7.27;;
6519;SDS011;3293;51.690;5.982;2023-03-12T15:14:02;23.63;;;7.37;;
6519;SDS011;3293;51.690;5.982;2023-03-12T15:19:05;26.20;;;7.10;;
6519;SDS011;3293;51.690;5.982;2023-03-12T15:24:08;30.13;;;8.47;;
6519;SDS011;3293;51.690;5.982;2023-03-12T15:34:34;28.37;;;7.57;;
6519;SDS011;3293;51.690;5.982;2023-03-12T15:39:35;30.37;;;8.13;;
6519;SDS011;3293;51.690;5.982;2023-03-12T15:44:43;31.90;;;8.33;;
6519;SDS011;3293;51.690;5.982;2023-03-12T16:00:16;27.40;;;7.27;;
6519;SDS011;3293;51.690;5.982;2023-03-12T16:05:20;23.23;;;8.77;;
6519;SDS011;3293;51.690;5.982;2023-03-12T16:10:37;23.50;;;7.33;;
6519;SDS011;3293;51.690;5.982;2023-03-12T16:15:37;23.47;;;6.43;;
6519;SDS011;3293;51.690;5.982;2023-03-12T16:20:38;25.13;;;6.83;;
6519;SDS011;3293;51.690;5.982;2023-03-12T16:25:40;24.70;;;6.50;;
6519;SDS011;3293;51.690;5.982;2023-03-12T16:30:42;27.07;;;7.20;;
6519;SDS011;3293;51.690;5.982;2023-03-12T16:35:41;31.43;;;8.10;;
6519;SDS011;3293;51.690;5.982;2023-03-12T16:40:43;28.43;;;8.40;;
6519;SDS011;3293;51.690;5.982;2023-03-12T16:45:47;30.60;;;8.53;;
6519;SDS011;3293;51.690;5.982;2023-03-12T16:50:49;27.73;;;8.57;;
6519;SDS011;3293;51.690;5.982;2023-03-12T16:55:51;20.13;;;7.50;;
6519;SDS011;3293;51.690;5.982;2023-03-12T17:00:53;29.37;;;8.80;;
6519;SDS011;3293;51.690;5.982;2023-03-12T17:05:54;38.80;;;9.53;;
6519;SDS011;3293;51.690;5.982;2023-03-12T17:10:54;38.33;;;8.97;;
6519;SDS011;3293;51.690;5.982;2023-03-12T17:15:55;29.97;;;8.77;;
6519;SDS011;3293;51.690;5.982;2023-03-12T17:20:54;26.57;;;6.87;;
6519;SDS011;3293;51.690;5.982;2023-03-12T17:25:54;24.00;;;7.57;;
6519;SDS011;3293;51.690;5.982;2023-03-12T17:30:54;26.13;;;7.63;;
6519;SDS011;3293;51.690;5.982;2023-03-12T17:35:58;25.40;;;6.93;;
6519;SDS011;3293;51.690;5.982;2023-03-12T17:41:01;29.17;;;7.00;;
6519;SDS011;3293;51.690;5.982;2023-03-12T17:46:04;21.87;;;6.80;;
6519;SDS011;3293;51.690;5.982;2023-03-12T17:51:06;23.53;;;6.57;;
6519;SDS011;3293;51.690;5.982;2023-03-12T17:56:08;29.77;;;8.33;;
6519;SDS011;3293;51.690;5.982;2023-03-12T18:01:10;31.90;;;8.43;;
6519;SDS011;3293;51.690;5.982;2023-03-12T18:06:11;21.97;;;6.80;;
6519;SDS011;3293;51.690;5.982;2023-03-12T18:11:11;22.80;;;6.57;;
6519;SDS011;3293;51.690;5.982;2023-03-12T18:16:11;31.23;;;7.20;;
6519;SDS011;3293;51.690;5.982;2023-03-12T18:21:11;25.03;;;6.40;;
6519;SDS011;3293;51.690;5.982;2023-03-12T18:26:11;25.80;;;6.20;;
6519;SDS011;3293;51.690;5.982;2023-03-12T18:31:12;25.40;;;6.60;;
6519;SDS011;3293;51.690;5.982;2023-03-12T18:36:12;21.50;;;6.13;;
6519;SDS011;3293;51.690;5.982;2023-03-12T18:41:12;25.07;;;7.03;;
6519;SDS011;3293;51.690;5.982;2023-03-12T18:46:12;26.47;;;7.27;;
6519;SDS011;3293;51.690;5.982;2023-03-12T18:51:13;32.13;;;7.73;;
6519;SDS011;3293;51.690;5.982;2023-03-12T18:56:12;26.37;;;6.97;;
6519;SDS011;3293;51.690;5.982;2023-03-12T19:01:13;26.57;;;6.90;;
6519;SDS011;3293;51.690;5.982;2023-03-12T19:06:14;24.87;;;7.80;;
6519;SDS011;3293;51.690;5.982;2023-03-12T19:11:15;23.33;;;7.57;;
6519;SDS011;3293;51.690;5.982;2023-03-12T19:16:15;27.70;;;7.00;;
6519;SDS011;3293;51.690;5.982;2023-03-12T19:21:18;29.17;;;6.50;;
6519;SDS011;3293;51.690;5.982;2023-03-12T19:26:18;31.97;;;6.73;;
6519;SDS011;3293;51.690;5.982;2023-03-12T19:31:18;28.33;;;6.80;;
6519;SDS011;3293;51.690;5.982;2023-03-12T19:36:18;24.60;;;7.57;;
6519;SDS011;3293;51.690;5.982;2023-03-12T19:41:18;24.97;;;6.80;;
6519;SDS011;3293;51.690;5.982;2023-03-12T19:46:18;28.03;;;7.27;;
6519;SDS011;3293;51.690;5.982;2023-03-12T19:51:18;25.00;;;6.37;;
6519;SDS011;3293;51.690;5.982;2023-03-12T19:56:18;32.30;;;7.13;;
6519;SDS011;3293;51.690;5.982;2023-03-12T20:01:19;34.17;;;7.87;;
6519;SDS011;3293;51.690;5.982;2023-03-12T20:06:19;28.67;;;6.90;;
6519;SDS011;3293;51.690;5.982;2023-03-12T20:11:19;24.80;;;6.70;;
6519;SDS011;3293;51.690;5.982;2023-03-12T20:16:19;25.93;;;7.17;;
6519;SDS011;3293;51.690;5.982;2023-03-12T20:21:19;29.10;;;7.10;;
6519;SDS011;3293;51.690;5.982;2023-03-12T20:26:20;22.00;;;6.67;;
6519;SDS011;3293;51.690;5.982;2023-03-12T20:31:20;25.27;;;6.57;;
6519;SDS011;3293;51.690;5.982;2023-03-12T20:36:20;24.57;;;6.50;;
6519;SDS011;3293;51.690;5.982;2023-03-12T20:41:20;24.57;;;6.83;;
6519;SDS011;3293;51.690;5.982;2023-03-12T20:46:20;32.07;;;7.43;;
6519;SDS011;3293;51.690;5.982;2023-03-12T20:51:20;32.00;;;8.00;;
6519;SDS011;3293;51.690;5.982;2023-03-12T20:56:20;32.33;;;8.07;;
6519;SDS011;3293;51.690;5.982;2023-03-12T21:01:20;32.67;;;7.27;;
6519;SDS011;3293;51.690;5.982;2023-03-12T21:06:20;28.70;;;8.50;;
6519;SDS011;3293;51.690;5.982;2023-03-12T21:11:20;25.07;;;7.23;;
6519;SDS011;3293;51.690;5.982;2023-03-12T21:16:21;29.67;;;6.83;;
6519;SDS011;3293;51.690;5.982;2023-03-12T21:21:21;21.13;;;7.13;;
6519;SDS011;3293;51.690;5.982;2023-03-12T21:26:22;28.23;;;7.73;;
6519;SDS011;3293;51.690;5.982;2023-03-12T21:31:22;32.17;;;7.43;;
6519;SDS011;3293;51.690;5.982;2023-03-12T21:36:24;33.43;;;7.27;;
6519;SDS011;3293;51.690;5.982;2023-03-12T21:41:25;23.83;;;6.60;;
6519;SDS011;3293;51.690;5.982;2023-03-12T21:46:25;31.37;;;8.00;;
6519;SDS011;3293;51.690;5.982;2023-03-12T21:51:26;29.60;;;6.63;;
6519;SDS011;3293;51.690;5.982;2023-03-12T21:56:26;18.93;;;6.23;;
6519;SDS011;3293;51.690;5.982;2023-03-12T22:01:27;24.70;;;6.93;;
6519;SDS011;3293;51.690;5.982;2023-03-12T22:06:27;15.13;;;6.07;;
6519;SDS011;3293;51.690;5.982;2023-03-12T22:11:27;26.80;;;6.93;;
6519;SDS011;3293;51.690;5.982;2023-03-12T22:16:27;23.33;;;7.00;;
6519;SDS011;3293;51.690;5.982;2023-03-12T22:21:27;16.63;;;6.13;;
6519;SDS011;3293;51.690;5.982;2023-03-12T22:26:27;22.23;;;5.90;;
6519;SDS011;3293;51.690;5.982;2023-03-12T22:31:28;20.20;;;6.33;;
6519;SDS011;3293;51.690;5.982;2023-03-12T22:36:28;21.87;;;6.23;;
6519;SDS011;3293;51.690;5.982;2023-03-12T22:41:28;25.27;;;6.47;;
6519;SDS011;3293;51.690;5.982;2023-03-12T22:46:28;21.57;;;6.33;;
6519;SDS011;3293;51.690;5.982;2023-03-12T22:51:29;21.07;;;6.37;;
6519;SDS011;3293;51.690;5.982;2023-03-12T22:56:30;19.80;;;5.53;;
6519;SDS011;3293;51.690;5.982;2023-03-12T23:01:30;20.63;;;6.00;;
6519;SDS011;3293;51.690;5.982;2023-03-12T23:06:31;18.30;;;4.87;;
6519;SDS011;3293;51.690;5.982;2023-03-12T23:11:31;17.77;;;5.60;;
6519;SDS011;3293;51.690;5.982;2023-03-12T23:16:31;21.30;;;5.47;;
6519;SDS011;3293;51.690;5.982;2023-03-12T23:21:31;23.43;;;7.40;;
6519;SDS011;3293;51.690;5.982;2023-03-12T23:26:31;22.50;;;6.20;;
6519;SDS011;3293;51.690;5.982;2023-03-12T23:31:32;22.40;;;5.70;;
6519;SDS011;3293;51.690;5.982;2023-03-12T23:36:32;25.07;;;6.03;;
6519;SDS011;3293;51.690;5.982;2023-03-12T23:41:32;20.60;;;5.87;;
6519;SDS011;3293;51.690;5.982;2023-03-12T23:46:32;20.37;;;6.17;;
6519;SDS011;3293;51.690;5.982;2023-03-12T23:51:32;22.50;;;6.43;;
6519;SDS011;3293;51.690;5.982;2023-03-12T23:56:36;16.23;;;5.00;;
